sensor_id;sensor_type;location;lat;lon;timestamp;pressure;altitude;pressure_sealevel;temperature;humidity
6395;BME280;3230;42.588;23.358;2022-09-17T00:01:26;90375.66;;;19.62;nan
6395;BME280;3230;42.588;23.358;2022-09-17T00:03:55;90380.38;;;19.69;nan
6395;BME280;3230;42.588;23.358;2022-09-17T00:06:23;90369.97;;;19.80;nan
6395;BME280;3230;42.588;23.358;2022-09-17T00:08:49;90371.78;;;19.92;nan
6395;BME280;3230;42.588;23.358;2022-09-17T00:11:17;90374.00;;;19.90;nan
6395;BME280;3230;42.588;23.358;2022-09-17T00:13:46;90374.16;;;19.97;nan
6395;BME280;3230;42.588;23.358;2022-09-17T00:16:12;90353.63;;;19.94;nan
6395;BME280;3230;42.588;23.358;2022-09-17T00:18:37;90358.09;;;20.09;nan
6395;BME280;3230;42.588;23.358;2022-09-17T00:21:06;90349.63;;;20.04;nan
6395;BME280;3230;42.588;23.358;2022-09-17T00:23:39;90344.94;;;20.17;nan
6395;BME280;3230;42.588;23.358;2022-09-17T00:26:04;90338.50;;;20.18;nan
6395;BME280;3230;42.588;23.358;2022-09-17T00:28:30;90335.53;;;20.19;nan
6395;BME280;3230;42.588;23.358;2022-09-17T00:30:56;90337.69;;;20.33;nan
6395;BME280;3230;42.588;23.358;2022-09-17T00:33:22;90340.72;;;20.32;nan
6395;BME280;3230;42.588;23.358;2022-09-17T00:36:00;90343.63;;;20.26;nan
6395;BME280;3230;42.588;23.358;2022-09-17T00:38:26;90337.00;;;20.36;nan
6395;BME280;3230;42.588;23.358;2022-09-17T00:40:51;90343.84;;;20.37;nan
6395;BME280;3230;42.588;23.358;2022-09-17T00:46:00;90328.53;;;20.31;nan
6395;BME280;3230;42.588;23.358;2022-09-17T00:48:26;90345.03;;;20.40;nan
6395;BME280;3230;42.588;23.358;2022-09-17T00:50:52;90343.16;;;20.40;nan
6395;BME280;3230;42.588;23.358;2022-09-17T00:53:20;90343.16;;;20.40;nan
6395;BME280;3230;42.588;23.358;2022-09-17T00:56:21;90347.91;;;20.51;nan
6395;BME280;3230;42.588;23.358;2022-09-17T00:58:49;90355.63;;;20.56;nan
6395;BME280;3230;42.588;23.358;2022-09-17T01:01:16;90358.97;;;20.53;nan
6395;BME280;3230;42.588;23.358;2022-09-17T01:03:41;90365.69;;;20.66;nan
6395;BME280;3230;42.588;23.358;2022-09-17T01:06:13;90358.13;;;20.68;nan
6395;BME280;3230;42.588;23.358;2022-09-17T01:08:57;90358.00;;;20.61;nan
6395;BME280;3230;42.588;23.358;2022-09-17T01:14:44;90340.47;;;20.60;nan
6395;BME280;3230;42.588;23.358;2022-09-17T01:28:31;90358.28;;;20.56;nan
6395;BME280;3230;42.588;23.358;2022-09-17T01:36:33;90344.13;;;20.52;nan
6395;BME280;3230;42.588;23.358;2022-09-17T01:39:11;90340.34;;;20.53;nan
6395;BME280;3230;42.588;23.358;2022-09-17T01:44:24;90356.16;;;20.45;nan
6395;BME280;3230;42.588;23.358;2022-09-17T01:46:56;90360.50;;;20.54;nan
6395;BME280;3230;42.588;23.358;2022-09-17T01:49:26;90358.13;;;20.49;nan
6395;BME280;3230;42.588;23.358;2022-09-17T01:51:54;90346.84;;;20.36;nan
6395;BME280;3230;42.588;23.358;2022-09-17T01:54:33;90336.94;;;20.33;nan
6395;BME280;3230;42.588;23.358;2022-09-17T01:57:04;90308.06;;;20.35;nan
6395;BME280;3230;42.588;23.358;2022-09-17T01:59:47;90289.16;;;20.40;nan
6395;BME280;3230;42.588;23.358;2022-09-17T02:02:19;90270.31;;;20.49;nan
6395;BME280;3230;42.588;23.358;2022-09-17T02:04:56;90266.56;;;20.50;nan
6395;BME280;3230;42.588;23.358;2022-09-17T02:07:24;90276.13;;;20.54;nan
6395;BME280;3230;42.588;23.358;2022-09-17T02:10:03;90254.13;;;20.57;nan
6395;BME280;3230;42.588;23.358;2022-09-17T02:12:36;90250.63;;;20.53;nan
6395;BME280;3230;42.588;23.358;2022-09-17T02:15:06;90273.19;;;20.20;nan
6395;BME280;3230;42.588;23.358;2022-09-17T02:20:40;90257.75;;;19.87;nan
6395;BME280;3230;42.588;23.358;2022-09-17T02:23:16;90239.94;;;19.71;nan
6395;BME280;3230;42.588;23.358;2022-09-17T02:26:11;90228.16;;;19.53;nan
6395;BME280;3230;42.588;23.358;2022-09-17T02:28:46;90212.31;;;19.21;nan
6395;BME280;3230;42.588;23.358;2022-09-17T02:31:13;90193.25;;;18.99;nan
6395;BME280;3230;42.588;23.358;2022-09-17T02:33:40;90183.19;;;19.08;nan
6395;BME280;3230;42.588;23.358;2022-09-17T02:36:08;90178.16;;;19.03;nan
6395;BME280;3230;42.588;23.358;2022-09-17T02:38:33;90189.06;;;18.98;nan
6395;BME280;3230;42.588;23.358;2022-09-17T02:41:20;90198.22;;;19.00;nan
6395;BME280;3230;42.588;23.358;2022-09-17T02:44:16;90220.47;;;18.96;nan
6395;BME280;3230;42.588;23.358;2022-09-17T02:52:48;90212.41;;;19.08;nan
6395;BME280;3230;42.588;23.358;2022-09-17T02:55:41;90228.00;;;19.10;nan
6395;BME280;3230;42.588;23.358;2022-09-17T02:58:17;90216.19;;;19.07;nan
6395;BME280;3230;42.588;23.358;2022-09-17T03:00:46;90234.09;;;19.10;nan
6395;BME280;3230;42.588;23.358;2022-09-17T03:03:18;90240.19;;;19.11;nan
6395;BME280;3230;42.588;23.358;2022-09-17T03:05:45;90228.25;;;19.21;nan
6395;BME280;3230;42.588;23.358;2022-09-17T03:08:12;90230.28;;;19.27;nan
6395;BME280;3230;42.588;23.358;2022-09-17T03:10:38;90230.09;;;19.36;nan
6395;BME280;3230;42.588;23.358;2022-09-17T03:13:05;90230.94;;;19.40;nan
6395;BME280;3230;42.588;23.358;2022-09-17T03:15:30;90226.63;;;19.52;nan
6395;BME280;3230;42.588;23.358;2022-09-17T03:17:56;90205.88;;;19.57;nan
6395;BME280;3230;42.588;23.358;2022-09-17T03:20:21;90189.44;;;19.52;nan
6395;BME280;3230;42.588;23.358;2022-09-17T03:22:47;90186.50;;;19.57;nan
6395;BME280;3230;42.588;23.358;2022-09-17T03:25:12;90178.13;;;19.55;nan
6395;BME280;3230;42.588;23.358;2022-09-17T03:27:38;90186.19;;;19.42;nan
6395;BME280;3230;42.588;23.358;2022-09-17T03:30:04;90203.28;;;19.41;nan
6395;BME280;3230;42.588;23.358;2022-09-17T03:32:31;90204.25;;;19.33;nan
6395;BME280;3230;42.588;23.358;2022-09-17T03:34:56;90211.25;;;19.25;nan
6395;BME280;3230;42.588;23.358;2022-09-17T03:37:22;90214.16;;;19.36;nan
6395;BME280;3230;42.588;23.358;2022-09-17T03:39:47;90207.28;;;19.35;nan
6395;BME280;3230;42.588;23.358;2022-09-17T03:42:13;90197.72;;;19.30;nan
6395;BME280;3230;42.588;23.358;2022-09-17T03:44:38;90189.25;;;19.25;nan
6395;BME280;3230;42.588;23.358;2022-09-17T03:47:04;90191.44;;;19.03;nan
6395;BME280;3230;42.588;23.358;2022-09-17T03:49:29;90184.47;;;19.14;nan
6395;BME280;3230;42.588;23.358;2022-09-17T03:51:54;90182.69;;;19.18;nan
6395;BME280;3230;42.588;23.358;2022-09-17T03:54:20;90173.13;;;19.33;nan
6395;BME280;3230;42.588;23.358;2022-09-17T03:56:45;90173.28;;;19.41;nan
6395;BME280;3230;42.588;23.358;2022-09-17T03:59:10;90181.38;;;19.28;nan
6395;BME280;3230;42.588;23.358;2022-09-17T04:01:36;90176.97;;;19.56;nan
6395;BME280;3230;42.588;23.358;2022-09-17T04:04:02;90179.53;;;19.68;nan
6395;BME280;3230;42.588;23.358;2022-09-17T04:06:28;90177.69;;;19.72;nan
6395;BME280;3230;42.588;23.358;2022-09-17T04:08:53;90181.25;;;19.80;nan
6395;BME280;3230;42.588;23.358;2022-09-17T04:11:19;90181.50;;;19.91;nan
6395;BME280;3230;42.588;23.358;2022-09-17T04:13:45;90186.44;;;19.92;nan
6395;BME280;3230;42.588;23.358;2022-09-17T04:16:10;90190.44;;;20.02;nan
6395;BME280;3230;42.588;23.358;2022-09-17T04:18:36;90193.50;;;20.04;nan
6395;BME280;3230;42.588;23.358;2022-09-17T04:21:01;90198.69;;;19.97;nan
6395;BME280;3230;42.588;23.358;2022-09-17T04:23:27;90216.31;;;20.05;nan
6395;BME280;3230;42.588;23.358;2022-09-17T04:25:53;90226.06;;;19.97;nan
6395;BME280;3230;42.588;23.358;2022-09-17T04:28:18;90232.84;;;19.95;nan
6395;BME280;3230;42.588;23.358;2022-09-17T04:30:44;90243.19;;;20.00;nan
6395;BME280;3230;42.588;23.358;2022-09-17T04:33:10;90253.91;;;20.04;nan
6395;BME280;3230;42.588;23.358;2022-09-17T04:35:35;90276.22;;;19.99;nan
6395;BME280;3230;42.588;23.358;2022-09-17T04:38:01;90268.53;;;19.94;nan
6395;BME280;3230;42.588;23.358;2022-09-17T04:40:26;90279.38;;;19.85;nan
6395;BME280;3230;42.588;23.358;2022-09-17T04:42:57;90296.38;;;19.48;nan
6395;BME280;3230;42.588;23.358;2022-09-17T04:45:28;90296.25;;;19.09;nan
6395;BME280;3230;42.588;23.358;2022-09-17T04:47:53;90310.69;;;18.64;nan
6395;BME280;3230;42.588;23.358;2022-09-17T04:50:20;90322.91;;;18.52;nan
6395;BME280;3230;42.588;23.358;2022-09-17T04:52:46;90324.84;;;18.40;nan
6395;BME280;3230;42.588;23.358;2022-09-17T04:55:13;90328.03;;;18.45;nan
6395;BME280;3230;42.588;23.358;2022-09-17T04:57:38;90330.53;;;18.54;nan
6395;BME280;3230;42.588;23.358;2022-09-17T05:00:05;90326.44;;;18.28;nan
6395;BME280;3230;42.588;23.358;2022-09-17T05:02:34;90328.88;;;18.21;nan
6395;BME280;3230;42.588;23.358;2022-09-17T05:04:59;90319.44;;;18.36;nan
6395;BME280;3230;42.588;23.358;2022-09-17T05:07:24;90308.69;;;18.16;nan
6395;BME280;3230;42.588;23.358;2022-09-17T05:09:50;90301.38;;;18.13;nan
6395;BME280;3230;42.588;23.358;2022-09-17T05:12:15;90302.69;;;18.19;nan
6395;BME280;3230;42.588;23.358;2022-09-17T05:14:41;90298.88;;;18.04;nan
6395;BME280;3230;42.588;23.358;2022-09-17T05:17:06;90308.72;;;18.04;nan
6395;BME280;3230;42.588;23.358;2022-09-17T05:19:32;90302.19;;;18.14;nan
6395;BME280;3230;42.588;23.358;2022-09-17T05:21:57;90300.09;;;18.07;nan
6395;BME280;3230;42.588;23.358;2022-09-17T05:24:23;90284.28;;;17.70;nan
6395;BME280;3230;42.588;23.358;2022-09-17T05:26:48;90271.94;;;17.90;nan
6395;BME280;3230;42.588;23.358;2022-09-17T05:29:13;90303.84;;;17.94;nan
6395;BME280;3230;42.588;23.358;2022-09-17T05:31:39;90315.34;;;18.10;nan
6395;BME280;3230;42.588;23.358;2022-09-17T05:34:04;90309.59;;;18.08;nan
6395;BME280;3230;42.588;23.358;2022-09-17T05:36:30;90311.28;;;18.00;nan
6395;BME280;3230;42.588;23.358;2022-09-17T05:38:55;90325.06;;;17.94;nan
6395;BME280;3230;42.588;23.358;2022-09-17T05:41:20;90315.69;;;17.84;nan
6395;BME280;3230;42.588;23.358;2022-09-17T05:43:46;90315.56;;;18.05;nan
6395;BME280;3230;42.588;23.358;2022-09-17T05:46:11;90289.63;;;18.27;nan
6395;BME280;3230;42.588;23.358;2022-09-17T05:48:37;90305.13;;;18.25;nan
6395;BME280;3230;42.588;23.358;2022-09-17T05:51:02;90298.63;;;18.22;nan
6395;BME280;3230;42.588;23.358;2022-09-17T05:53:27;90298.22;;;18.36;nan
6395;BME280;3230;42.588;23.358;2022-09-17T05:55:57;90313.88;;;18.41;nan
6395;BME280;3230;42.588;23.358;2022-09-17T05:58:22;90314.13;;;18.36;nan
6395;BME280;3230;42.588;23.358;2022-09-17T06:00:48;90311.59;;;18.56;nan
6395;BME280;3230;42.588;23.358;2022-09-17T06:03:15;90321.47;;;18.71;nan
6395;BME280;3230;42.588;23.358;2022-09-17T06:05:41;90319.84;;;18.82;nan
6395;BME280;3230;42.588;23.358;2022-09-17T06:08:07;90318.91;;;18.75;nan
6395;BME280;3230;42.588;23.358;2022-09-17T06:10:36;90312.97;;;18.94;nan
6395;BME280;3230;42.588;23.358;2022-09-17T06:13:02;90314.59;;;18.98;nan
6395;BME280;3230;42.588;23.358;2022-09-17T06:15:28;90315.63;;;18.94;nan
6395;BME280;3230;42.588;23.358;2022-09-17T06:17:54;90319.06;;;19.10;nan
6395;BME280;3230;42.588;23.358;2022-09-17T06:20:19;90332.16;;;19.19;nan
6395;BME280;3230;42.588;23.358;2022-09-17T06:22:45;90340.47;;;19.17;nan
6395;BME280;3230;42.588;23.358;2022-09-17T06:25:11;90335.59;;;19.20;nan
6395;BME280;3230;42.588;23.358;2022-09-17T06:27:36;90344.75;;;19.38;nan
6395;BME280;3230;42.588;23.358;2022-09-17T06:30:02;90348.06;;;19.35;nan
6395;BME280;3230;42.588;23.358;2022-09-17T06:32:28;90344.28;;;19.52;nan
6395;BME280;3230;42.588;23.358;2022-09-17T06:34:54;90349.69;;;19.56;nan
6395;BME280;3230;42.588;23.358;2022-09-17T06:37:26;90356.53;;;19.73;nan
6395;BME280;3230;42.588;23.358;2022-09-17T06:39:51;90381.50;;;19.68;nan
6395;BME280;3230;42.588;23.358;2022-09-17T06:42:18;90396.66;;;19.04;nan
6395;BME280;3230;42.588;23.358;2022-09-17T06:44:43;90393.72;;;18.93;nan
6395;BME280;3230;42.588;23.358;2022-09-17T06:47:09;90371.00;;;18.67;nan
6395;BME280;3230;42.588;23.358;2022-09-17T06:49:34;90366.50;;;18.39;nan
6395;BME280;3230;42.588;23.358;2022-09-17T06:51:59;90357.63;;;18.47;nan
6395;BME280;3230;42.588;23.358;2022-09-17T06:54:25;90370.72;;;18.28;nan
6395;BME280;3230;42.588;23.358;2022-09-17T06:56:51;90358.75;;;18.05;nan
6395;BME280;3230;42.588;23.358;2022-09-17T06:59:16;90360.50;;;18.14;nan
6395;BME280;3230;42.588;23.358;2022-09-17T07:01:42;90340.06;;;18.14;nan
6395;BME280;3230;42.588;23.358;2022-09-17T07:04:08;90322.53;;;18.38;nan
6395;BME280;3230;42.588;23.358;2022-09-17T07:06:34;90313.28;;;18.32;nan
6395;BME280;3230;42.588;23.358;2022-09-17T07:08:59;90314.88;;;18.36;nan
6395;BME280;3230;42.588;23.358;2022-09-17T07:11:24;90310.03;;;18.10;nan
6395;BME280;3230;42.588;23.358;2022-09-17T07:13:50;90300.72;;;18.16;nan
6395;BME280;3230;42.588;23.358;2022-09-17T07:16:15;90296.69;;;18.95;nan
6395;BME280;3230;42.588;23.358;2022-09-17T07:18:41;90284.66;;;19.49;nan
6395;BME280;3230;42.588;23.358;2022-09-17T07:21:06;90288.25;;;20.32;nan
6395;BME280;3230;42.588;23.358;2022-09-17T07:23:34;90298.06;;;22.21;nan
6395;BME280;3230;42.588;23.358;2022-09-17T07:26:04;90302.34;;;23.91;nan
6395;BME280;3230;42.588;23.358;2022-09-17T07:28:30;90320.91;;;25.67;nan
6395;BME280;3230;42.588;23.358;2022-09-17T07:30:56;90319.81;;;26.97;nan
6395;BME280;3230;42.588;23.358;2022-09-17T07:33:24;90314.00;;;28.53;nan
6395;BME280;3230;42.588;23.358;2022-09-17T07:35:56;90296.22;;;28.59;nan
6395;BME280;3230;42.588;23.358;2022-09-17T07:38:22;90305.50;;;30.22;nan
6395;BME280;3230;42.588;23.358;2022-09-17T07:40:55;90275.56;;;31.67;nan
6395;BME280;3230;42.588;23.358;2022-09-17T07:45:47;90242.59;;;31.19;nan
6395;BME280;3230;42.588;23.358;2022-09-17T07:48:13;90252.72;;;29.70;nan
6395;BME280;3230;42.588;23.358;2022-09-17T07:50:38;90279.00;;;31.51;nan
6395;BME280;3230;42.588;23.358;2022-09-17T07:53:03;90264.22;;;30.82;nan
6395;BME280;3230;42.588;23.358;2022-09-17T07:55:29;90273.75;;;29.28;nan
6395;BME280;3230;42.588;23.358;2022-09-17T07:57:54;90273.31;;;28.02;nan
6395;BME280;3230;42.588;23.358;2022-09-17T08:00:20;90257.09;;;28.47;nan
6395;BME280;3230;42.588;23.358;2022-09-17T08:02:52;90258.25;;;28.12;nan
6395;BME280;3230;42.588;23.358;2022-09-17T08:05:18;90253.34;;;29.30;nan
6395;BME280;3230;42.588;23.358;2022-09-17T08:07:43;90259.75;;;29.64;nan
6395;BME280;3230;42.588;23.358;2022-09-17T08:10:09;90264.16;;;28.99;nan
6395;BME280;3230;42.588;23.358;2022-09-17T08:12:34;90244.56;;;28.64;nan
6395;BME280;3230;42.588;23.358;2022-09-17T08:14:59;90246.16;;;28.27;nan
6395;BME280;3230;42.588;23.358;2022-09-17T08:17:25;90240.22;;;28.08;nan
6395;BME280;3230;42.588;23.358;2022-09-17T08:19:50;90237.69;;;27.90;nan
6395;BME280;3230;42.588;23.358;2022-09-17T08:22:16;90241.44;;;29.24;nan
6395;BME280;3230;42.588;23.358;2022-09-17T08:24:41;90238.69;;;30.03;nan
6395;BME280;3230;42.588;23.358;2022-09-17T08:27:07;90242.88;;;30.68;nan
6395;BME280;3230;42.588;23.358;2022-09-17T08:29:32;90237.94;;;31.36;nan
6395;BME280;3230;42.588;23.358;2022-09-17T08:31:58;90239.41;;;32.19;nan
6395;BME280;3230;42.588;23.358;2022-09-17T08:34:23;90235.59;;;31.54;nan
6395;BME280;3230;42.588;23.358;2022-09-17T08:36:48;90251.97;;;31.14;nan
6395;BME280;3230;42.588;23.358;2022-09-17T08:39:14;90248.84;;;29.47;nan
6395;BME280;3230;42.588;23.358;2022-09-17T08:42:24;90253.81;;;28.32;nan
6395;BME280;3230;42.588;23.358;2022-09-17T08:44:53;90234.91;;;28.36;nan
6395;BME280;3230;42.588;23.358;2022-09-17T08:47:33;90241.03;;;28.36;nan
6395;BME280;3230;42.588;23.358;2022-09-17T08:50:10;90234.47;;;28.03;nan
6395;BME280;3230;42.588;23.358;2022-09-17T08:55:27;90229.44;;;26.54;nan
6395;BME280;3230;42.588;23.358;2022-09-17T09:06:08;90237.59;;;23.63;nan
6395;BME280;3230;42.588;23.358;2022-09-17T09:08:41;90236.88;;;23.67;nan
6395;BME280;3230;42.588;23.358;2022-09-17T09:11:31;90252.59;;;23.23;nan
6395;BME280;3230;42.588;23.358;2022-09-17T09:14:34;90238.53;;;22.44;nan
6395;BME280;3230;42.588;23.358;2022-09-17T09:17:07;90241.78;;;21.69;nan
6395;BME280;3230;42.588;23.358;2022-09-17T09:19:43;90236.97;;;21.78;nan
6395;BME280;3230;42.588;23.358;2022-09-17T09:25:25;90261.97;;;21.16;nan
6395;BME280;3230;42.588;23.358;2022-09-17T09:33:36;90294.84;;;20.38;nan
6395;BME280;3230;42.588;23.358;2022-09-17T09:36:11;90294.91;;;20.22;nan
6395;BME280;3230;42.588;23.358;2022-09-17T09:44:12;90296.66;;;20.34;nan
6395;BME280;3230;42.588;23.358;2022-09-17T09:46:46;90284.47;;;20.33;nan
6395;BME280;3230;42.588;23.358;2022-09-17T09:57:48;90302.16;;;20.06;nan
6395;BME280;3230;42.588;23.358;2022-09-17T10:00:34;90305.59;;;19.87;nan
6395;BME280;3230;42.588;23.358;2022-09-17T10:03:08;90292.72;;;19.73;nan
6395;BME280;3230;42.588;23.358;2022-09-17T10:05:35;90305.94;;;19.69;nan
6395;BME280;3230;42.588;23.358;2022-09-17T10:08:13;90279.28;;;19.65;nan
6395;BME280;3230;42.588;23.358;2022-09-17T10:13:29;90243.97;;;19.45;nan
6395;BME280;3230;42.588;23.358;2022-09-17T10:15:55;90246.72;;;19.33;nan
6395;BME280;3230;42.588;23.358;2022-09-17T10:18:23;90254.97;;;19.12;nan
6395;BME280;3230;42.588;23.358;2022-09-17T10:20:57;90231.69;;;19.05;nan
6395;BME280;3230;42.588;23.358;2022-09-17T10:23:25;90235.91;;;19.06;nan
6395;BME280;3230;42.588;23.358;2022-09-17T10:25:52;90214.41;;;18.79;nan
6395;BME280;3230;42.588;23.358;2022-09-17T10:28:46;90186.31;;;18.78;nan
6395;BME280;3230;42.588;23.358;2022-09-17T10:31:13;90204.56;;;18.48;nan
6395;BME280;3230;42.588;23.358;2022-09-17T10:34:01;90207.78;;;18.41;nan
6395;BME280;3230;42.588;23.358;2022-09-17T10:36:44;90200.19;;;18.56;nan
6395;BME280;3230;42.588;23.358;2022-09-17T10:39:18;90189.31;;;18.29;nan
6395;BME280;3230;42.588;23.358;2022-09-17T10:41:58;90177.50;;;18.26;nan
6395;BME280;3230;42.588;23.358;2022-09-17T10:44:26;90170.56;;;18.37;nan
6395;BME280;3230;42.588;23.358;2022-09-17T10:46:52;90165.44;;;18.29;nan
6395;BME280;3230;42.588;23.358;2022-09-17T10:49:35;90151.16;;;18.17;nan
6395;BME280;3230;42.588;23.358;2022-09-17T10:52:12;90132.34;;;18.06;nan
6395;BME280;3230;42.588;23.358;2022-09-17T10:57:57;90106.22;;;18.57;nan
6395;BME280;3230;42.588;23.358;2022-09-17T11:00:29;90107.63;;;18.86;nan
6395;BME280;3230;42.588;23.358;2022-09-17T11:16:57;90121.09;;;20.11;nan
6395;BME280;3230;42.588;23.358;2022-09-17T11:28:31;90131.34;;;20.59;nan
6395;BME280;3230;42.588;23.358;2022-09-17T11:30:21;90154.19;;;20.60;nan
6395;BME280;3230;42.588;23.358;2022-09-17T11:33:21;90162.22;;;20.40;nan
6395;BME280;3230;42.588;23.358;2022-09-17T11:35:52;90140.41;;;20.54;nan
6395;BME280;3230;42.588;23.358;2022-09-17T11:41:29;90182.28;;;20.34;nan
6395;BME280;3230;42.588;23.358;2022-09-17T11:44:13;90193.72;;;20.38;nan
6395;BME280;3230;42.588;23.358;2022-09-17T11:46:50;90178.69;;;20.46;nan
6395;BME280;3230;42.588;23.358;2022-09-17T11:52:12;90198.97;;;20.11;nan
6395;BME280;3230;42.588;23.358;2022-09-17T11:57:43;90162.25;;;19.58;nan
6395;BME280;3230;42.588;23.358;2022-09-17T12:00:17;90169.72;;;19.72;nan
6395;BME280;3230;42.588;23.358;2022-09-17T12:03:13;90150.41;;;19.56;nan
6395;BME280;3230;42.588;23.358;2022-09-17T12:05:44;90156.16;;;19.58;nan
6395;BME280;3230;42.588;23.358;2022-09-17T12:14:20;90166.63;;;19.50;nan
6395;BME280;3230;42.588;23.358;2022-09-17T12:16:49;90162.38;;;19.65;nan
6395;BME280;3230;42.588;23.358;2022-09-17T12:19:36;90163.47;;;19.45;nan
6395;BME280;3230;42.588;23.358;2022-09-17T12:22:17;90156.66;;;19.44;nan
6395;BME280;3230;42.588;23.358;2022-09-17T12:24:45;90155.19;;;19.46;nan
6395;BME280;3230;42.588;23.358;2022-09-17T12:32:31;90158.84;;;19.22;nan
6395;BME280;3230;42.588;23.358;2022-09-17T12:40:48;90147.03;;;18.68;nan
6395;BME280;3230;42.588;23.358;2022-09-17T12:58:00;90110.19;;;18.82;nan
6395;BME280;3230;42.588;23.358;2022-09-17T13:00:45;90108.47;;;18.90;nan
6395;BME280;3230;42.588;23.358;2022-09-17T13:06:19;90106.78;;;19.37;nan
6395;BME280;3230;42.588;23.358;2022-09-17T13:11:50;90124.06;;;19.47;nan
6395;BME280;3230;42.588;23.358;2022-09-17T13:14:38;90100.66;;;19.53;nan
6395;BME280;3230;42.588;23.358;2022-09-17T13:17:37;90119.16;;;19.69;nan
6395;BME280;3230;42.588;23.358;2022-09-17T13:20:40;90123.13;;;19.78;nan
6395;BME280;3230;42.588;23.358;2022-09-17T13:23:08;90115.31;;;19.86;nan
6395;BME280;3230;42.588;23.358;2022-09-17T13:25:48;90114.19;;;19.67;nan
6395;BME280;3230;42.588;23.358;2022-09-17T13:28:16;90101.84;;;19.36;nan
6395;BME280;3230;42.588;23.358;2022-09-17T13:30:56;90089.53;;;19.27;nan
6395;BME280;3230;42.588;23.358;2022-09-17T13:33:47;90084.63;;;19.10;nan
6395;BME280;3230;42.588;23.358;2022-09-17T13:36:39;90065.19;;;19.06;nan
6395;BME280;3230;42.588;23.358;2022-09-17T13:39:08;90060.72;;;18.90;nan
6395;BME280;3230;42.588;23.358;2022-09-17T13:41:38;90048.16;;;18.71;nan
6395;BME280;3230;42.588;23.358;2022-09-17T13:44:06;90040.59;;;18.53;nan
6395;BME280;3230;42.588;23.358;2022-09-17T13:46:33;90037.81;;;18.30;nan
6395;BME280;3230;42.588;23.358;2022-09-17T13:49:10;90008.03;;;18.37;nan
6395;BME280;3230;42.588;23.358;2022-09-17T13:54:06;89999.88;;;18.46;nan
6395;BME280;3230;42.588;23.358;2022-09-17T13:56:36;89996.72;;;18.40;nan
6395;BME280;3230;42.588;23.358;2022-09-17T13:59:35;89995.91;;;18.56;nan
6395;BME280;3230;42.588;23.358;2022-09-17T14:09:56;89989.75;;;18.32;nan
6395;BME280;3230;42.588;23.358;2022-09-17T14:20:53;90013.84;;;18.27;nan
6395;BME280;3230;42.588;23.358;2022-09-17T14:23:19;90012.69;;;18.08;nan
6395;BME280;3230;42.588;23.358;2022-09-17T14:25:51;89998.69;;;17.92;nan
6395;BME280;3230;42.588;23.358;2022-09-17T14:30:56;89956.97;;;17.72;nan
6395;BME280;3230;42.588;23.358;2022-09-17T14:33:26;89959.19;;;17.54;nan
6395;BME280;3230;42.588;23.358;2022-09-17T14:36:15;89951.50;;;17.49;nan
6395;BME280;3230;42.588;23.358;2022-09-17T14:38:45;89960.03;;;17.42;nan
6395;BME280;3230;42.588;23.358;2022-09-17T14:46:08;89931.59;;;17.39;nan
6395;BME280;3230;42.588;23.358;2022-09-17T14:48:38;89971.66;;;17.38;nan
6395;BME280;3230;42.588;23.358;2022-09-17T14:53:41;89944.31;;;17.34;nan
6395;BME280;3230;42.588;23.358;2022-09-17T14:56:10;89918.38;;;17.23;nan
6395;BME280;3230;42.588;23.358;2022-09-17T14:58:40;89911.97;;;17.24;nan
6395;BME280;3230;42.588;23.358;2022-09-17T15:01:21;89902.56;;;17.27;nan
6395;BME280;3230;42.588;23.358;2022-09-17T15:03:47;89898.56;;;17.17;nan
6395;BME280;3230;42.588;23.358;2022-09-17T15:06:21;89911.63;;;17.10;nan
6395;BME280;3230;42.588;23.358;2022-09-17T15:08:47;89924.16;;;17.13;nan
6395;BME280;3230;42.588;23.358;2022-09-17T15:11:12;89917.13;;;17.05;nan
6395;BME280;3230;42.588;23.358;2022-09-17T15:13:54;89914.00;;;16.99;nan
6395;BME280;3230;42.588;23.358;2022-09-17T15:16:23;89909.75;;;16.82;nan
6395;BME280;3230;42.588;23.358;2022-09-17T15:18:57;89878.91;;;16.74;nan
6395;BME280;3230;42.588;23.358;2022-09-17T15:21:40;89879.09;;;16.81;nan
6395;BME280;3230;42.588;23.358;2022-09-17T15:26:40;89882.38;;;16.90;nan
6395;BME280;3230;42.588;23.358;2022-09-17T15:29:10;89887.00;;;16.93;nan
6395;BME280;3230;42.588;23.358;2022-09-17T15:31:36;89879.28;;;16.88;nan
6395;BME280;3230;42.588;23.358;2022-09-17T15:34:02;89883.47;;;16.89;nan
6395;BME280;3230;42.588;23.358;2022-09-17T15:36:27;89879.06;;;16.93;nan
6395;BME280;3230;42.588;23.358;2022-09-17T15:38:54;89899.34;;;16.89;nan
6395;BME280;3230;42.588;23.358;2022-09-17T15:41:33;89888.09;;;16.92;nan
6395;BME280;3230;42.588;23.358;2022-09-17T15:44:25;89898.03;;;16.96;nan
6395;BME280;3230;42.588;23.358;2022-09-17T15:46:52;89911.84;;;17.05;nan
6395;BME280;3230;42.588;23.358;2022-09-17T15:51:54;89895.75;;;17.26;nan
6395;BME280;3230;42.588;23.358;2022-09-17T15:54:30;89911.88;;;17.37;nan
6395;BME280;3230;42.588;23.358;2022-09-17T15:57:00;89915.09;;;17.46;nan
6395;BME280;3230;42.588;23.358;2022-09-17T15:59:28;89911.09;;;17.52;nan
6395;BME280;3230;42.588;23.358;2022-09-17T16:01:55;89904.84;;;17.61;nan
6395;BME280;3230;42.588;23.358;2022-09-17T16:04:30;89907.38;;;17.73;nan
6395;BME280;3230;42.588;23.358;2022-09-17T16:09:48;89896.47;;;17.74;nan
6395;BME280;3230;42.588;23.358;2022-09-17T16:12:20;89887.06;;;17.77;nan
6395;BME280;3230;42.588;23.358;2022-09-17T16:14:54;89867.66;;;17.73;nan
6395;BME280;3230;42.588;23.358;2022-09-17T16:17:46;89862.34;;;17.73;nan
6395;BME280;3230;42.588;23.358;2022-09-17T16:22:43;89874.75;;;17.69;nan
6395;BME280;3230;42.588;23.358;2022-09-17T16:25:09;89865.47;;;17.59;nan
6395;BME280;3230;42.588;23.358;2022-09-17T16:27:55;89860.69;;;17.65;nan
6395;BME280;3230;42.588;23.358;2022-09-17T16:30:22;89862.28;;;17.69;nan
6395;BME280;3230;42.588;23.358;2022-09-17T16:32:48;89831.94;;;17.67;nan
6395;BME280;3230;42.588;23.358;2022-09-17T16:35:15;89830.84;;;17.68;nan
6395;BME280;3230;42.588;23.358;2022-09-17T16:37:41;89829.72;;;17.69;nan
6395;BME280;3230;42.588;23.358;2022-09-17T16:40:11;89844.59;;;17.73;nan
6395;BME280;3230;42.588;23.358;2022-09-17T16:42:37;89845.34;;;17.74;nan
6395;BME280;3230;42.588;23.358;2022-09-17T16:45:03;89864.75;;;17.78;nan
6395;BME280;3230;42.588;23.358;2022-09-17T16:47:33;89857.13;;;17.77;nan
6395;BME280;3230;42.588;23.358;2022-09-17T16:49:58;89867.13;;;17.83;nan
6395;BME280;3230;42.588;23.358;2022-09-17T16:52:24;89878.16;;;17.85;nan
6395;BME280;3230;42.588;23.358;2022-09-17T16:54:49;89872.59;;;17.90;nan